createdAt,value
2018-12-30T00:01:56.271Z,100.00
2018-12-30T00:04:26.615Z,100.00
2018-12-30T00:07:16.078Z,100.00
2018-12-30T00:09:46.319Z,100.00
2018-12-30T00:12:16.528Z,100.00
2018-12-30T00:14:45.042Z,100.00
2018-12-30T00:17:13.558Z,100.00
2018-12-30T00:20:01.281Z,100.00
2018-12-30T00:22:29.830Z,100.00
2018-12-30T00:24:58.369Z,100.00
2018-12-30T00:27:26.879Z,100.00
2018-12-30T00:29:55.467Z,100.00
2018-12-30T00:32:25.733Z,100.00
2018-12-30T00:34:54.217Z,100.00
2018-12-30T00:37:22.769Z,100.00
2018-12-30T00:39:51.280Z,100.00
2018-12-30T00:42:19.839Z,100.00
2018-12-30T00:44:48.356Z,100.00
2018-12-30T00:47:16.855Z,100.00
2018-12-30T00:49:45.381Z,100.00
2018-12-30T00:52:13.848Z,99.22
2018-12-30T00:55:01.681Z,98.69
2018-12-30T00:57:30.152Z,97.13
2018-12-30T01:00:17.910Z,95.08
2018-12-30T01:02:46.379Z,93.30
2018-12-30T01:05:34.204Z,92.21
2018-12-30T01:08:02.673Z,92.47
2018-12-30T01:10:50.414Z,90.82
2018-12-30T01:16:25.670Z,89.66
2018-12-30T01:18:54.147Z,90.45
2018-12-30T01:21:25.205Z,90.94
2018-12-30T01:24:13.918Z,91.03
2018-12-30T01:26:42.392Z,90.25
2018-12-30T01:29:10.873Z,89.38
2018-12-30T01:31:39.343Z,89.89
2018-12-30T01:34:27.069Z,90.81
2018-12-30T01:36:55.546Z,89.78
2018-12-30T01:39:24.029Z,90.07
2018-12-30T01:41:52.507Z,90.57
2018-12-30T01:44:40.107Z,90.27
2018-12-30T01:49:56.027Z,90.53
2018-12-30T01:55:11.954Z,91.38
2018-12-30T01:57:42.152Z,90.85
2018-12-30T02:00:29.892Z,89.31
2018-12-30T02:02:58.366Z,87.83
2018-12-30T02:05:26.853Z,88.19
2018-12-30T02:07:55.330Z,88.70
2018-12-30T02:10:43.150Z,87.44
2018-12-30T02:13:30.880Z,87.85
2018-12-30T02:15:59.359Z,87.64
2018-12-30T02:18:27.839Z,86.98
2018-12-30T02:21:15.659Z,86.72
2018-12-30T02:26:31.578Z,87.04
2018-12-30T02:31:47.504Z,86.61
2018-12-30T02:34:35.091Z,86.52
2018-12-30T02:37:03.577Z,86.30
2018-12-30T02:42:19.489Z,86.11
2018-12-30T02:45:07.092Z,86.71
2018-12-30T02:47:54.683Z,86.34
2018-12-30T02:50:42.516Z,86.11
2018-12-30T02:53:30.111Z,85.72
2018-12-30T02:58:32.944Z,85.37
2018-12-30T03:01:01.463Z,85.38
2018-12-30T03:03:29.911Z,85.18
2018-12-30T03:06:17.737Z,85.60
2018-12-30T03:09:25.599Z,85.41
2018-12-30T03:14:28.002Z,84.95
2018-12-30T03:17:15.744Z,84.53
2018-12-30T03:20:03.552Z,84.12
2018-12-30T03:25:46.041Z,84.69
2018-12-30T03:28:14.513Z,84.65
2018-12-30T03:31:02.123Z,84.88
2018-12-30T03:33:30.598Z,84.66
2018-12-30T03:35:59.078Z,84.69
2018-12-30T03:39:07.481Z,84.47
2018-12-30T03:41:55.090Z,84.24
2018-12-30T03:44:42.803Z,83.96
2018-12-30T03:47:11.291Z,84.04
2018-12-30T03:49:59.010Z,83.89
2018-12-30T03:52:46.749Z,83.96
2018-12-30T03:55:34.465Z,84.24
2018-12-30T03:58:22.075Z,84.06
2018-12-30T04:00:50.597Z,84.27
2018-12-30T04:03:19.041Z,84.39
2018-12-30T04:05:47.514Z,84.63
2018-12-30T04:08:35.416Z,84.88
2018-12-30T04:11:23.243Z,84.91
2018-12-30T04:14:10.966Z,85.01
2018-12-30T04:16:39.456Z,85.26
2018-12-30T04:19:27.054Z,85.41
2018-12-30T04:22:17.042Z,85.05
2018-12-30T04:25:04.110Z,84.62
2018-12-30T04:27:32.597Z,84.77
2018-12-30T04:30:20.323Z,84.73
2018-12-30T04:32:48.829Z,84.96
2018-12-30T04:35:17.288Z,84.83
2018-12-30T04:37:45.776Z,85.31
2018-12-30T04:40:33.598Z,84.97
2018-12-30T04:43:21.425Z,84.68
2018-12-30T04:45:49.914Z,84.86
2018-12-30T04:48:18.380Z,84.78
2018-12-30T04:51:06.107Z,84.54
2018-12-30T04:53:34.593Z,84.09
2018-12-30T04:56:22.181Z,84.42
2018-12-30T04:58:50.673Z,84.46
2018-12-30T05:01:19.415Z,85.08
2018-12-30T05:04:07.151Z,85.43
2018-12-30T05:06:54.882Z,85.09
2018-12-30T05:09:23.362Z,84.90
2018-12-30T05:14:45.221Z,85.47
2018-12-30T05:25:15.452Z,84.71
2018-12-30T05:33:10.743Z,84.28
2018-12-30T05:35:58.559Z,84.63
2018-12-30T05:38:27.044Z,84.56
2018-12-30T05:41:14.765Z,84.58
2018-12-30T05:43:43.251Z,84.07
2018-12-30T05:46:11.724Z,84.48
2018-12-30T05:51:14.189Z,84.52
2018-12-30T05:54:01.791Z,84.64
2018-12-30T05:59:36.963Z,84.75
2018-12-30T06:02:24.722Z,84.94
2018-12-30T06:05:12.315Z,84.97
2018-12-30T06:07:59.920Z,85.74
2018-12-30T06:10:28.394Z,86.02
2018-12-30T06:13:16.130Z,86.04
2018-12-30T06:15:44.604Z,86.19
2018-12-30T06:18:32.383Z,86.59
2018-12-30T06:21:19.979Z,86.36
2018-12-30T06:24:07.713Z,86.30
2018-12-30T06:26:55.311Z,86.72
2018-12-30T06:32:16.634Z,86.64
2018-12-30T06:35:04.233Z,87.03
2018-12-30T06:37:32.711Z,87.08
2018-12-30T06:40:20.314Z,87.23
2018-12-30T06:43:07.920Z,88.45
2018-12-30T06:48:43.181Z,89.30
2018-12-30T06:51:11.656Z,88.93
2018-12-30T06:53:59.389Z,89.27
2018-12-30T06:56:27.866Z,89.22
2018-12-30T06:59:15.477Z,90.08
2018-12-30T07:05:09.859Z,90.55
2018-12-30T07:07:38.334Z,90.42
2018-12-30T07:10:46.732Z,90.28
2018-12-30T07:13:15.217Z,90.50
2018-12-30T07:18:31.140Z,90.50
2018-12-30T07:20:59.891Z,90.23
2018-12-30T07:23:28.386Z,90.64
2018-12-30T07:25:56.863Z,90.52
2018-12-30T07:28:25.333Z,90.26
2018-12-30T07:31:13.070Z,89.83
2018-12-30T07:34:00.812Z,90.10
2018-12-30T07:36:48.625Z,89.85
2018-12-30T07:39:17.113Z,89.56
2018-12-30T07:41:45.586Z,90.29
2018-12-30T07:44:14.073Z,91.15
2018-12-30T07:46:42.550Z,91.94
2018-12-30T07:49:11.050Z,91.79
2018-12-30T07:51:39.539Z,91.16
2018-12-30T07:54:27.153Z,91.31
2018-12-30T07:56:55.648Z,91.65
2018-12-30T07:59:24.141Z,91.60
2018-12-30T08:02:11.735Z,92.18
2018-12-30T08:04:59.465Z,92.33
2018-12-30T08:07:47.058Z,91.82
2018-12-30T08:10:15.588Z,91.47
2018-12-30T08:12:44.026Z,91.34
2018-12-30T08:15:31.655Z,91.58
2018-12-30T08:18:00.133Z,91.39
2018-12-30T08:20:47.738Z,90.67
2018-12-30T08:23:35.464Z,90.08
2018-12-30T08:26:23.114Z,90.49
2018-12-30T08:29:10.716Z,90.19
2018-12-30T08:31:58.540Z,89.85
2018-12-30T08:34:27.024Z,89.59
2018-12-30T08:36:55.500Z,87.96
2018-12-30T08:39:24.072Z,87.84
2018-12-30T08:42:11.662Z,87.25
2018-12-30T08:44:40.152Z,87.00
2018-12-30T08:47:27.748Z,86.75
2018-12-30T08:49:56.230Z,84.82
2018-12-30T08:52:43.950Z,82.11
2018-12-30T08:55:31.683Z,78.94
2018-12-30T08:58:00.153Z,76.10
2018-12-30T09:00:47.768Z,74.09
2018-12-30T09:03:35.357Z,74.64
2018-12-30T09:06:23.089Z,75.12
2018-12-30T09:08:51.575Z,74.62
2018-12-30T09:11:39.311Z,73.01
2018-12-30T09:14:07.791Z,74.24
2018-12-30T09:16:36.283Z,72.48
2018-12-30T09:19:44.690Z,71.48
2018-12-30T09:22:13.163Z,69.59
2018-12-30T09:24:41.643Z,67.79
2018-12-30T09:27:10.131Z,65.69
2018-12-30T09:29:57.734Z,65.15
2018-12-30T09:32:26.211Z,66.35
2018-12-30T09:34:54.714Z,68.60
2018-12-30T09:40:29.989Z,73.37
2018-12-30T09:42:58.471Z,75.31
2018-12-30T09:45:26.958Z,74.71
2018-12-30T09:47:55.436Z,75.98
2018-12-30T09:50:23.921Z,77.95
2018-12-30T09:53:11.504Z,79.29
2018-12-30T09:55:39.991Z,79.47
2018-12-30T09:58:27.581Z,79.95
2018-12-30T10:00:56.071Z,80.42
2018-12-30T10:03:24.543Z,81.11
2018-12-30T10:05:53.028Z,81.53
2018-12-30T10:11:08.951Z,82.93
2018-12-30T10:16:24.870Z,83.89
2018-12-30T10:22:01.780Z,83.92
2018-12-30T10:24:30.247Z,84.34
2018-12-30T10:26:58.733Z,84.45
2018-12-30T10:29:27.206Z,84.92
2018-12-30T10:32:14.936Z,85.04
2018-12-30T10:34:43.410Z,85.04
2018-12-30T10:37:11.893Z,84.69
2018-12-30T10:39:59.481Z,84.27
2018-12-30T10:42:27.965Z,85.08
2018-12-30T10:45:15.558Z,85.31
2018-12-30T10:47:44.036Z,85.05
2018-12-30T10:50:12.515Z,85.07
2018-12-30T10:52:41.005Z,85.08
2018-12-30T10:57:56.928Z,84.92
2018-12-30T11:00:44.652Z,84.86
2018-12-30T11:03:32.385Z,84.50
2018-12-30T11:06:19.986Z,85.45
2018-12-30T11:09:07.806Z,85.91
2018-12-30T11:11:36.289Z,86.00
2018-12-30T11:14:24.014Z,85.40
2018-12-30T11:17:11.620Z,85.18
2018-12-30T11:19:59.218Z,85.03
2018-12-30T11:22:46.820Z,84.26
2018-12-30T11:25:15.295Z,83.17
2018-12-30T11:28:03.122Z,83.28
2018-12-30T11:30:50.719Z,83.36
2018-12-30T11:38:27.510Z,82.89
2018-12-30T11:40:56.000Z,83.13
2018-12-30T11:43:43.631Z,82.64
2018-12-30T11:46:52.014Z,82.34
2018-12-30T11:49:39.737Z,82.23
2018-12-30T11:52:08.222Z,83.32
2018-12-30T11:57:24.155Z,83.25
2018-12-30T12:00:11.740Z,83.25
2018-12-30T12:02:59.571Z,82.29
2018-12-30T12:05:28.058Z,83.04
2018-12-30T12:07:56.548Z,82.40
2018-12-30T12:10:44.367Z,83.11
2018-12-30T12:13:12.855Z,82.54
2018-12-30T12:18:47.886Z,82.22
2018-12-30T12:21:16.365Z,82.27
2018-12-30T12:23:44.851Z,82.00
2018-12-30T12:26:32.590Z,82.03
2018-12-30T12:29:20.310Z,81.98
2018-12-30T12:32:07.909Z,82.42
2018-12-30T12:37:42.949Z,83.07
2018-12-30T12:40:11.427Z,83.84
2018-12-30T12:42:39.916Z,83.35
2018-12-30T12:45:27.730Z,83.98
2018-12-30T12:48:15.469Z,84.64
2018-12-30T12:51:03.198Z,84.80
2018-12-30T12:53:51.033Z,84.45
2018-12-30T12:56:38.754Z,83.88
2018-12-30T12:59:07.244Z,84.43
2018-12-30T13:01:35.727Z,84.95
2018-12-30T13:04:23.693Z,84.65
2018-12-30T13:06:52.164Z,84.58
2018-12-30T13:11:55.144Z,84.77
2018-12-30T13:14:23.777Z,83.97
2018-12-30T13:16:52.459Z,84.17
2018-12-30T13:19:21.072Z,84.22
2018-12-30T13:22:08.948Z,83.95
2018-12-30T13:24:56.620Z,84.18
2018-12-30T13:27:44.267Z,84.38
2018-12-30T13:30:12.771Z,84.20
2018-12-30T13:32:41.337Z,83.82
2018-12-30T13:35:09.876Z,83.63
2018-12-30T13:37:38.480Z,83.35
2018-12-30T13:40:07.140Z,83.09
2018-12-30T13:42:35.637Z,82.94
2018-12-30T13:47:59.196Z,84.00
2018-12-30T13:50:46.935Z,83.11
2018-12-30T13:53:15.432Z,83.05
2018-12-30T13:55:44.119Z,83.13
2018-12-30T13:58:31.860Z,83.43
2018-12-30T14:01:00.352Z,83.72
2018-12-30T14:03:54.996Z,83.38
2018-12-30T14:06:23.506Z,83.24
2018-12-30T14:08:52.018Z,82.75
2018-12-30T14:11:20.536Z,82.38
2018-12-30T14:14:08.381Z,82.07
2018-12-30T14:16:36.953Z,82.22
2018-12-30T14:19:05.491Z,82.86
2018-12-30T14:21:34.008Z,82.76
2018-12-30T14:24:02.656Z,82.26
2018-12-30T14:26:31.112Z,82.34
2018-12-30T14:28:59.669Z,82.73
2018-12-30T14:31:28.156Z,83.04
2018-12-30T14:33:56.673Z,83.78
2018-12-30T14:36:25.142Z,84.41
2018-12-30T14:39:12.966Z,84.69
2018-12-30T14:41:41.476Z,84.92
2018-12-30T14:44:10.031Z,85.11
2018-12-30T14:46:38.628Z,85.08
2018-12-30T14:49:26.383Z,84.64
2018-12-30T14:51:54.865Z,84.99
2018-12-30T14:54:23.412Z,84.62
2018-12-30T14:56:51.881Z,84.36
2018-12-30T14:59:39.531Z,84.38
2018-12-30T15:02:08.028Z,84.86
2018-12-30T15:04:36.514Z,84.84
2018-12-30T15:07:24.270Z,85.42
2018-12-30T15:09:52.816Z,85.62
2018-12-30T15:12:40.531Z,84.88
2018-12-30T15:15:28.262Z,85.30
2018-12-30T15:17:56.747Z,86.00
2018-12-30T15:22:59.126Z,86.21
2018-12-30T15:25:27.618Z,86.32
2018-12-30T15:30:43.544Z,86.38
2018-12-30T15:33:12.021Z,86.42
2018-12-30T15:35:40.507Z,85.86
2018-12-30T15:38:28.230Z,86.20
2018-12-30T15:43:49.770Z,85.89
2018-12-30T15:46:18.256Z,85.55
2018-12-30T15:48:46.724Z,85.56
2018-12-30T15:51:34.321Z,85.39
2018-12-30T15:54:02.803Z,85.65
2018-12-30T15:56:50.538Z,85.99
2018-12-30T15:59:38.354Z,87.12
2018-12-30T16:04:41.333Z,86.69
2018-12-30T16:07:29.066Z,86.97
2018-12-30T16:13:04.104Z,86.74
2018-12-30T16:15:51.839Z,86.42
2018-12-30T16:18:20.316Z,86.15
2018-12-30T16:20:48.796Z,87.00
2018-12-30T16:23:17.278Z,86.92
2018-12-30T16:28:39.324Z,86.72
2018-12-30T16:31:07.812Z,87.40
2018-12-30T16:33:36.287Z,86.91
2018-12-30T16:36:24.020Z,87.97
2018-12-30T16:41:39.940Z,87.68
2018-12-30T16:44:27.755Z,87.84
2018-12-30T16:47:15.486Z,88.11
2018-12-30T16:49:43.962Z,88.41
2018-12-30T16:52:12.446Z,88.48
2018-12-30T16:54:40.939Z,88.73
2018-12-30T16:57:09.423Z,88.36
2018-12-30T16:59:37.892Z,88.28
2018-12-30T17:02:06.382Z,88.56
2018-12-30T17:04:34.863Z,87.98
2018-12-30T17:07:22.462Z,88.01
2018-12-30T17:09:50.944Z,87.68
2018-12-30T17:12:19.459Z,87.90
2018-12-30T17:17:35.377Z,88.69
2018-12-30T17:20:23.197Z,88.19
2018-12-30T17:23:11.023Z,88.76
2018-12-30T17:28:26.950Z,88.19
2018-12-30T17:30:55.428Z,87.83
2018-12-30T17:33:43.259Z,87.66
2018-12-30T17:36:11.739Z,87.83
2018-12-30T17:41:13.915Z,88.13
2018-12-30T17:44:01.520Z,87.79
2018-12-30T17:46:49.125Z,87.99
2018-12-30T17:54:39.480Z,88.69
2018-12-30T17:57:27.222Z,88.69
2018-12-30T18:00:14.945Z,88.64
2018-12-30T18:03:02.674Z,88.24
2018-12-30T18:05:31.152Z,88.25
2018-12-30T18:07:59.648Z,88.15
2018-12-30T18:10:47.253Z,88.60
2018-12-30T18:15:49.662Z,88.58
2018-12-30T18:18:18.185Z,88.36
2018-12-30T18:20:46.658Z,88.26
2018-12-30T18:25:49.123Z,87.80
2018-12-30T18:28:17.633Z,88.21
2018-12-30T18:31:05.356Z,88.41
2018-12-30T18:33:33.881Z,88.73
2018-12-30T18:36:02.359Z,88.60
2018-12-30T18:38:50.191Z,88.68
2018-12-30T18:41:18.693Z,88.92
2018-12-30T18:44:06.431Z,88.93
2018-12-30T18:46:34.903Z,88.63
2018-12-30T18:49:03.427Z,88.81
2018-12-30T18:51:51.087Z,88.35
2018-12-30T18:54:38.827Z,87.93
2018-12-30T18:57:26.654Z,87.66
2018-12-30T18:59:55.131Z,87.81
2018-12-30T19:02:42.953Z,87.01
2018-12-30T19:05:30.542Z,87.61
2018-12-30T19:08:18.148Z,87.83
2018-12-30T19:11:05.865Z,87.86
2018-12-30T19:13:34.361Z,87.08
2018-12-30T19:16:22.183Z,86.50
2018-12-30T19:18:50.661Z,86.24
2018-12-30T19:21:19.141Z,86.70
2018-12-30T19:24:06.871Z,86.84
2018-12-30T19:29:42.045Z,86.67
2018-12-30T19:32:10.528Z,86.17
2018-12-30T19:34:58.135Z,85.53
2018-12-30T19:37:45.866Z,85.00
2018-12-30T19:40:33.469Z,84.07
2018-12-30T19:43:21.093Z,84.58
2018-12-30T19:46:08.986Z,84.57
2018-12-30T19:48:37.470Z,85.24
2018-12-30T19:51:25.058Z,84.37
2018-12-30T19:53:53.544Z,83.83
2018-12-30T19:56:22.324Z,84.70
2018-12-30T19:58:52.230Z,85.53
2018-12-30T20:01:39.956Z,86.01
2018-12-30T20:04:27.782Z,86.87
2018-12-30T20:06:56.257Z,85.70
2018-12-30T20:09:25.737Z,84.78
2018-12-30T20:14:43.429Z,85.92
2018-12-30T20:17:12.603Z,85.29
2018-12-30T20:19:41.089Z,84.35
2018-12-30T20:22:09.560Z,85.13
2018-12-30T20:24:38.037Z,85.18
2018-12-30T20:27:25.626Z,84.22
2018-12-30T20:30:13.354Z,84.59
2018-12-30T20:33:01.079Z,84.58
2018-12-30T20:35:29.567Z,84.66
2018-12-30T20:38:17.161Z,84.71
2018-12-30T20:41:04.900Z,84.65
2018-12-30T20:43:52.495Z,84.92
2018-12-30T20:46:20.977Z,85.04
2018-12-30T20:48:49.456Z,85.45
2018-12-30T20:51:18.018Z,85.24
2018-12-30T20:54:05.755Z,84.47
2018-12-30T20:56:53.356Z,84.61
2018-12-30T20:59:21.829Z,84.44
2018-12-30T21:02:09.569Z,84.75
2018-12-30T21:04:38.073Z,84.39
2018-12-30T21:07:25.667Z,84.07
2018-12-30T21:10:13.275Z,83.53
2018-12-30T21:13:00.865Z,84.00
2018-12-30T21:15:29.354Z,84.00
2018-12-30T21:18:17.077Z,83.77
2018-12-30T21:20:45.565Z,85.32
2018-12-30T21:26:01.488Z,85.47
2018-12-30T21:28:49.209Z,85.28
2018-12-30T21:31:17.695Z,85.92
2018-12-30T21:33:46.499Z,86.70
2018-12-30T21:36:14.981Z,87.00
2018-12-30T21:38:43.459Z,86.56
2018-12-30T21:41:31.281Z,86.56
2018-12-30T21:44:18.876Z,87.69
2018-12-30T21:46:47.363Z,87.13
2018-12-30T21:49:34.958Z,86.55
2018-12-30T21:52:03.440Z,86.30
2018-12-30T21:54:51.036Z,86.04
2018-12-30T21:57:19.524Z,85.60
2018-12-30T21:59:48.001Z,85.24
2018-12-30T22:02:35.737Z,84.87
2018-12-30T22:05:44.135Z,84.89
2018-12-30T22:08:12.611Z,84.33
2018-12-30T22:11:00.470Z,84.09
2018-12-30T22:16:16.391Z,82.99
2018-12-30T22:21:32.322Z,82.78
2018-12-30T22:24:20.144Z,82.64
2018-12-30T22:27:07.874Z,82.72
2018-12-30T22:29:36.353Z,82.66
2018-12-30T22:32:24.094Z,82.64
2018-12-30T22:35:11.698Z,82.80
2018-12-30T22:37:59.302Z,83.43
2018-12-30T22:40:27.791Z,84.11
2018-12-30T22:42:56.270Z,84.21
2018-12-30T22:46:04.665Z,83.89
2018-12-30T22:48:45.740Z,83.60
2018-12-30T22:51:14.232Z,83.39
2018-12-30T22:54:02.054Z,83.52
2018-12-30T22:56:49.699Z,83.32
2018-12-30T22:59:37.290Z,82.98
2018-12-30T23:02:25.123Z,83.22
2018-12-30T23:08:01.799Z,82.65
2018-12-30T23:10:49.475Z,82.43
2018-12-30T23:13:37.124Z,82.17
2018-12-30T23:16:05.634Z,82.05
2018-12-30T23:18:53.361Z,82.07
2018-12-30T23:21:40.966Z,81.94
2018-12-30T23:26:56.885Z,82.13
2018-12-30T23:29:44.612Z,81.94
2018-12-30T23:34:47.706Z,81.88
2018-12-30T23:37:16.196Z,82.13
2018-12-30T23:40:03.923Z,82.11
2018-12-30T23:45:25.549Z,82.31
2018-12-30T23:47:54.036Z,82.13
2018-12-30T23:50:22.512Z,81.99
2018-12-30T23:52:50.995Z,81.75
2018-12-30T23:55:19.482Z,82.19
2018-12-30T23:58:07.206Z,81.99
